createdAt,value
2018-06-27T00:00:59.520Z,20.52
2018-06-27T00:01:59.518Z,20.51
2018-06-27T00:02:59.521Z,20.50
2018-06-27T00:03:59.524Z,20.50
2018-06-27T00:04:59.531Z,20.50
2018-06-27T00:05:59.531Z,20.55
2018-06-27T00:06:59.532Z,20.51
2018-06-27T00:07:59.534Z,20.50
2018-06-27T00:08:59.540Z,20.47
2018-06-27T00:09:59.541Z,20.52
2018-06-27T00:10:59.543Z,20.55
2018-06-27T00:11:59.547Z,20.59
2018-06-27T00:12:59.549Z,20.65
2018-06-27T00:13:59.552Z,20.59
2018-06-27T00:14:59.554Z,20.55
2018-06-27T00:15:59.559Z,20.65
2018-06-27T00:16:59.561Z,20.56
2018-06-27T00:17:59.564Z,20.60
2018-06-27T00:18:59.567Z,20.58
2018-06-27T00:19:59.577Z,20.58
2018-06-27T00:20:59.576Z,20.55
2018-06-27T00:21:59.578Z,20.60
2018-06-27T00:22:59.580Z,20.51
2018-06-27T00:23:59.581Z,20.56
2018-06-27T00:24:59.584Z,20.48
2018-06-27T00:25:59.594Z,20.43
2018-06-27T00:26:59.592Z,20.48
2018-06-27T00:27:59.594Z,20.48
2018-06-27T00:28:59.597Z,20.50
2018-06-27T00:29:59.615Z,20.44
2018-06-27T00:30:59.602Z,20.47
2018-06-27T00:31:59.606Z,20.47
2018-06-27T00:32:59.611Z,20.43
2018-06-27T00:33:59.632Z,20.40
2018-06-27T00:34:59.612Z,20.36
2018-06-27T00:35:59.616Z,20.36
2018-06-27T00:36:59.625Z,20.29
2018-06-27T00:37:59.623Z,20.39
2018-06-27T00:38:59.625Z,20.21
2018-06-27T00:39:59.630Z,20.22
2018-06-27T00:40:59.630Z,20.21
2018-06-27T00:41:59.632Z,20.26
2018-06-27T00:42:59.636Z,20.24
2018-06-27T00:43:59.638Z,20.18
2018-06-27T00:44:59.640Z,20.14
2018-06-27T00:45:59.645Z,20.09
2018-06-27T00:46:59.645Z,20.04
2018-06-27T00:47:59.647Z,20.09
2018-06-27T00:48:59.649Z,20.04
2018-06-27T00:49:59.655Z,20.02
2018-06-27T00:50:59.655Z,20.00
2018-06-27T00:51:59.657Z,20.02
2018-06-27T00:52:59.660Z,19.95
2018-06-27T00:53:59.667Z,20.00
2018-06-27T00:54:59.663Z,20.06
2018-06-27T00:55:59.670Z,19.92
2018-06-27T00:56:59.669Z,19.94
2018-06-27T00:57:59.672Z,19.96
2018-06-27T00:58:59.674Z,19.99
2018-06-27T00:59:59.681Z,19.86
2018-06-27T01:00:59.678Z,19.88
2018-06-27T01:01:59.680Z,19.89
2018-06-27T01:02:59.690Z,19.89
2018-06-27T01:03:59.684Z,19.89
2018-06-27T01:04:59.689Z,19.84
2018-06-27T01:05:59.689Z,19.82
2018-06-27T01:06:59.694Z,19.82
2018-06-27T01:07:59.694Z,19.77
2018-06-27T01:08:59.697Z,19.77
2018-06-27T01:09:59.698Z,19.70
2018-06-27T01:10:59.700Z,19.69
2018-06-27T01:11:59.703Z,19.63
2018-06-27T01:12:59.706Z,19.63
2018-06-27T01:13:59.707Z,19.62
2018-06-27T01:14:59.710Z,19.51
2018-06-27T01:15:59.712Z,19.49
2018-06-27T01:16:59.714Z,19.39
2018-06-27T01:17:59.716Z,19.34
2018-06-27T01:18:59.717Z,19.40
2018-06-27T01:19:59.726Z,19.30
2018-06-27T01:20:59.724Z,19.36
2018-06-27T01:21:59.725Z,19.31
2018-06-27T01:22:59.725Z,19.34
2018-06-27T01:23:59.728Z,19.33
2018-06-27T01:24:59.736Z,19.33
2018-06-27T01:25:59.731Z,19.26
2018-06-27T01:26:59.735Z,19.33
2018-06-27T01:27:59.739Z,19.22
2018-06-27T01:28:59.739Z,19.33
2018-06-27T01:29:59.740Z,19.15
2018-06-27T01:30:59.744Z,19.19
2018-06-27T01:31:59.755Z,19.22
2018-06-27T01:32:59.747Z,19.22
2018-06-27T01:33:59.750Z,19.18
2018-06-27T01:34:59.750Z,19.21
2018-06-27T01:35:59.750Z,19.12
2018-06-27T01:36:59.754Z,19.14
2018-06-27T01:37:59.755Z,19.18
2018-06-27T01:38:59.758Z,19.14
2018-06-27T01:39:59.759Z,19.08
2018-06-27T01:40:59.776Z,19.04
2018-06-27T01:41:59.761Z,19.00
2018-06-27T01:42:59.764Z,18.98
2018-06-27T01:43:59.769Z,18.96
2018-06-27T01:44:59.770Z,18.96
2018-06-27T01:45:59.770Z,18.93
2018-06-27T01:46:59.771Z,18.96
2018-06-27T01:47:59.774Z,18.99
2018-06-27T01:48:59.775Z,18.95
2018-06-27T01:49:59.778Z,18.98
2018-06-27T01:50:59.779Z,18.98
2018-06-27T01:51:59.780Z,19.00
2018-06-27T01:52:59.783Z,18.99
2018-06-27T01:53:59.783Z,18.93
2018-06-27T01:54:59.786Z,18.90
2018-06-27T01:55:59.786Z,18.96
2018-06-27T01:56:59.789Z,18.95
2018-06-27T01:57:59.794Z,18.92
2018-06-27T01:58:59.793Z,18.99
2018-06-27T01:59:59.798Z,18.88
2018-06-27T02:00:59.796Z,18.81
2018-06-27T02:01:59.797Z,18.90
2018-06-27T02:02:59.804Z,18.83
2018-06-27T02:03:59.803Z,18.81
2018-06-27T02:04:59.803Z,18.78
2018-06-27T02:05:59.804Z,18.78
2018-06-27T02:06:59.807Z,18.81
2018-06-27T02:07:59.819Z,18.74
2018-06-27T02:08:59.809Z,18.81
2018-06-27T02:09:59.811Z,18.78
2018-06-27T02:10:59.820Z,18.71
2018-06-27T02:11:59.821Z,18.75
2018-06-27T02:12:59.817Z,18.65
2018-06-27T02:13:59.824Z,18.65
2018-06-27T02:14:59.826Z,18.71
2018-06-27T02:15:59.820Z,18.71
2018-06-27T02:16:59.822Z,18.68
2018-06-27T02:17:59.833Z,18.71
2018-06-27T02:18:59.827Z,18.62
2018-06-27T02:19:59.833Z,18.70
2018-06-27T02:20:59.828Z,18.58
2018-06-27T02:21:59.830Z,18.56
2018-06-27T02:22:59.832Z,18.60
2018-06-27T02:23:59.839Z,18.58
2018-06-27T02:24:59.835Z,18.52
2018-06-27T02:25:59.837Z,18.52
2018-06-27T02:26:59.837Z,18.49
2018-06-27T02:27:59.840Z,18.43
2018-06-27T02:28:59.843Z,18.52
2018-06-27T02:29:59.844Z,18.49
2018-06-27T02:30:59.860Z,18.38
2018-06-27T02:31:59.852Z,18.41
2018-06-27T02:32:59.848Z,18.37
2018-06-27T02:33:59.853Z,18.35
2018-06-27T02:34:59.860Z,18.38
2018-06-27T02:35:59.852Z,18.35
2018-06-27T02:36:59.865Z,18.38
2018-06-27T02:37:59.874Z,18.43
2018-06-27T02:38:59.857Z,18.35
2018-06-27T02:39:59.858Z,18.49
2018-06-27T02:40:59.863Z,18.47
2018-06-27T02:41:59.863Z,18.40
2018-06-27T02:42:59.865Z,18.41
2018-06-27T02:43:59.865Z,18.37
2018-06-27T02:44:59.877Z,18.47
2018-06-27T02:45:59.867Z,18.41
2018-06-27T02:46:59.868Z,18.40
2018-06-27T02:47:59.871Z,18.43
2018-06-27T02:48:59.873Z,18.41
2018-06-27T02:49:59.873Z,18.40
2018-06-27T02:50:59.877Z,18.44
2018-06-27T02:51:59.877Z,18.40
2018-06-27T02:52:59.882Z,18.23
2018-06-27T02:53:59.886Z,18.23
2018-06-27T02:54:59.880Z,18.31
2018-06-27T02:55:59.882Z,18.20
2018-06-27T02:56:59.884Z,18.20
2018-06-27T02:57:59.885Z,18.28
2018-06-27T02:58:59.886Z,18.28
2018-06-27T02:59:59.887Z,18.16
2018-06-27T03:00:59.889Z,18.13
2018-06-27T03:01:59.894Z,18.07
2018-06-27T03:02:59.891Z,18.10
2018-06-27T03:03:59.892Z,18.11
2018-06-27T03:04:59.894Z,18.07
2018-06-27T03:05:59.895Z,17.97
2018-06-27T03:06:59.897Z,17.97
2018-06-27T03:07:59.898Z,17.97
2018-06-27T03:08:59.900Z,18.03
2018-06-27T03:09:59.900Z,18.01
2018-06-27T03:10:59.903Z,18.05
2018-06-27T03:11:59.903Z,17.98
2018-06-27T03:12:59.906Z,18.01
2018-06-27T03:13:59.907Z,17.98
2018-06-27T03:14:59.908Z,17.95
2018-06-27T03:15:59.912Z,17.97
2018-06-27T03:16:59.912Z,17.92
2018-06-27T03:17:59.913Z,17.94
2018-06-27T03:18:59.911Z,17.94
2018-06-27T03:19:59.912Z,17.89
2018-06-27T03:20:59.914Z,17.94
2018-06-27T03:21:59.915Z,17.98
2018-06-27T03:22:59.916Z,17.94
2018-06-27T03:23:59.917Z,17.98
2018-06-27T03:24:59.919Z,18.05
2018-06-27T03:25:59.922Z,17.95
2018-06-27T03:26:59.926Z,17.90
2018-06-27T03:27:59.922Z,17.87
2018-06-27T03:28:59.924Z,17.89
2018-06-27T03:29:59.961Z,17.86
2018-06-27T03:30:59.926Z,17.86
2018-06-27T03:31:59.931Z,17.82
2018-06-27T03:32:59.928Z,17.80
2018-06-27T03:33:59.929Z,17.85
2018-06-27T03:34:59.935Z,17.86
2018-06-27T03:35:59.932Z,17.85
2018-06-27T03:36:59.935Z,17.85
2018-06-27T03:37:59.934Z,17.82
2018-06-27T03:38:59.944Z,17.80
2018-06-27T03:39:59.939Z,17.80
2018-06-27T03:40:59.938Z,17.76
2018-06-27T03:41:59.938Z,17.85
2018-06-27T03:42:59.940Z,17.86
2018-06-27T03:43:59.949Z,17.83
2018-06-27T03:44:59.944Z,17.80
2018-06-27T03:45:59.945Z,17.82
2018-06-27T03:46:59.946Z,17.82
2018-06-27T03:47:59.950Z,17.76
2018-06-27T03:48:59.992Z,17.76
2018-06-27T03:49:59.951Z,17.80
2018-06-27T03:50:59.951Z,17.80
2018-06-27T03:51:59.952Z,17.80
2018-06-27T03:52:59.952Z,17.83
2018-06-27T03:53:59.960Z,17.86
2018-06-27T03:54:59.959Z,17.86
2018-06-27T03:55:59.969Z,17.89
2018-06-27T03:57:00.018Z,17.89
2018-06-27T03:57:59.960Z,18.01
2018-06-27T03:58:59.987Z,17.87
2018-06-27T03:59:59.963Z,17.86
2018-06-27T04:00:59.963Z,17.87
2018-06-27T04:01:59.964Z,17.86
2018-06-27T04:02:59.966Z,17.87
2018-06-27T04:03:59.969Z,17.89
2018-06-27T04:04:59.969Z,17.86
2018-06-27T04:05:59.970Z,17.82
2018-06-27T04:06:59.973Z,17.83
2018-06-27T04:07:59.972Z,17.85
2018-06-27T04:08:59.973Z,17.80
2018-06-27T04:09:59.986Z,17.83
2018-06-27T04:10:59.974Z,17.83
2018-06-27T04:11:59.978Z,17.85
2018-06-27T04:13:00.100Z,17.82
2018-06-27T04:13:59.982Z,17.89
2018-06-27T04:14:59.980Z,17.89
2018-06-27T04:16:00.000Z,17.95
2018-06-27T04:16:59.982Z,17.86
2018-06-27T04:17:59.993Z,17.86
2018-06-27T04:18:59.984Z,17.83
2018-06-27T04:19:59.996Z,17.85
2018-06-27T04:20:59.993Z,17.82
2018-06-27T04:21:59.987Z,17.94
2018-06-27T04:22:59.987Z,17.87
2018-06-27T04:23:59.988Z,17.86
2018-06-27T04:24:59.995Z,17.85
2018-06-27T04:25:59.994Z,17.86
2018-06-27T04:26:59.992Z,17.87
2018-06-27T04:27:59.994Z,17.86
2018-06-27T04:28:59.997Z,17.87
2018-06-27T04:29:59.997Z,17.89
2018-06-27T04:30:59.995Z,17.85
2018-06-27T04:31:59.997Z,18.00
2018-06-27T04:32:59.999Z,17.89
2018-06-27T04:34:00.018Z,17.97
2018-06-27T04:35:00.001Z,17.95
2018-06-27T04:36:00.037Z,18.01
2018-06-27T04:37:00.007Z,17.98
2018-06-27T04:38:00.014Z,18.11
2018-06-27T04:39:00.011Z,18.16
2018-06-27T04:40:00.017Z,18.20
2018-06-27T04:41:00.011Z,18.22
2018-06-27T04:42:00.013Z,18.23
2018-06-27T04:43:00.018Z,18.31
2018-06-27T04:44:00.022Z,18.28
2018-06-27T04:45:00.017Z,18.25
2018-06-27T04:46:00.018Z,18.20
2018-06-27T04:47:00.016Z,18.08
2018-06-27T04:48:00.022Z,18.03
2018-06-27T04:49:00.020Z,18.03
2018-06-27T04:50:00.028Z,17.97
2018-06-27T04:51:00.027Z,18.04
2018-06-27T04:52:00.026Z,18.15
2018-06-27T04:53:00.026Z,18.11
2018-06-27T04:54:00.031Z,18.25
2018-06-27T04:55:00.060Z,18.22
2018-06-27T04:56:00.027Z,18.25
2018-06-27T04:57:00.029Z,18.28
2018-06-27T04:58:00.046Z,18.23
2018-06-27T04:59:00.029Z,18.29
2018-06-27T05:00:00.040Z,18.20
2018-06-27T05:01:00.060Z,18.26
2018-06-27T05:02:00.045Z,18.23
2018-06-27T05:03:00.039Z,18.23
2018-06-27T05:04:00.038Z,18.23
2018-06-27T05:05:00.040Z,18.15
2018-06-27T05:06:00.042Z,18.15
2018-06-27T05:07:00.041Z,18.33
2018-06-27T05:08:00.046Z,18.33
2018-06-27T05:09:00.079Z,18.35
2018-06-27T05:10:00.051Z,18.53
2018-06-27T05:11:00.049Z,18.75
2018-06-27T05:12:00.051Z,18.95
2018-06-27T05:13:00.051Z,19.34
2018-06-27T05:14:00.089Z,19.58
2018-06-27T05:15:00.086Z,19.63
2018-06-27T05:16:00.118Z,19.74
2018-06-27T05:17:00.056Z,19.79
2018-06-27T05:18:00.054Z,20.04
2018-06-27T05:19:00.057Z,20.41
2018-06-27T05:20:00.064Z,20.95
2018-06-27T05:21:00.063Z,21.06
2018-06-27T05:22:00.066Z,21.17
2018-06-27T05:23:00.066Z,21.00
2018-06-27T05:24:00.066Z,20.92
2018-06-27T05:25:00.068Z,20.95
2018-06-27T05:26:00.073Z,21.17
2018-06-27T05:27:00.125Z,21.35
2018-06-27T05:28:00.092Z,21.37
2018-06-27T05:29:00.080Z,21.45
2018-06-27T05:30:00.098Z,21.20
2018-06-27T05:31:00.123Z,20.99
2018-06-27T05:32:00.087Z,20.88
2018-06-27T05:33:00.092Z,20.92
2018-06-27T05:34:00.179Z,21.37
2018-06-27T05:35:00.099Z,22.18
2018-06-27T05:36:00.107Z,22.32
2018-06-27T05:37:00.109Z,22.25
2018-06-27T05:38:00.119Z,22.18
2018-06-27T05:39:00.110Z,21.62
2018-06-27T05:40:00.115Z,21.12
2018-06-27T05:41:00.120Z,20.80
2018-06-27T05:42:00.118Z,20.63
2018-06-27T05:43:00.132Z,20.47
2018-06-27T05:44:00.145Z,20.31
2018-06-27T05:45:00.149Z,20.16
2018-06-27T05:46:00.133Z,20.16
2018-06-27T05:47:00.137Z,20.10
2018-06-27T05:48:00.143Z,20.03
2018-06-27T05:49:00.159Z,19.94
2018-06-27T05:50:00.168Z,19.95
2018-06-27T05:51:00.167Z,19.91
2018-06-27T05:52:00.154Z,19.70
2018-06-27T05:53:00.156Z,19.70
2018-06-27T05:54:00.160Z,19.56
2018-06-27T05:55:00.161Z,19.70
2018-06-27T05:56:00.174Z,20.03
2018-06-27T05:57:00.167Z,20.37
2018-06-27T05:58:00.198Z,20.50
2018-06-27T05:59:00.172Z,20.62
2018-06-27T06:00:00.186Z,20.65
2018-06-27T06:01:00.178Z,20.69
2018-06-27T06:02:00.180Z,20.63
2018-06-27T06:03:00.188Z,20.63
2018-06-27T06:04:00.262Z,20.65
2018-06-27T06:05:00.189Z,20.51
2018-06-27T06:06:00.196Z,20.39
2018-06-27T06:07:00.227Z,20.39
2018-06-27T06:08:00.198Z,20.47
2018-06-27T06:09:00.208Z,20.47
2018-06-27T06:10:00.284Z,20.62
2018-06-27T06:11:00.211Z,20.51
2018-06-27T06:12:00.211Z,20.62
2018-06-27T06:13:00.214Z,20.58
2018-06-27T06:14:00.215Z,20.47
2018-06-27T06:15:00.221Z,20.40
2018-06-27T06:16:00.240Z,20.21
2018-06-27T06:17:00.223Z,20.03
2018-06-27T06:18:00.227Z,19.92
2018-06-27T06:19:00.231Z,19.84
2018-06-27T06:20:00.235Z,19.49
2018-06-27T06:21:00.236Z,19.40
2018-06-27T06:22:00.239Z,19.21
2018-06-27T06:23:00.240Z,19.07
2018-06-27T06:24:00.244Z,18.86
2018-06-27T06:25:00.245Z,18.88
2018-06-27T06:26:00.260Z,18.80
2018-06-27T06:27:00.249Z,18.77
2018-06-27T06:28:00.252Z,18.83
2018-06-27T06:29:00.258Z,18.62
2018-06-27T06:30:00.264Z,18.52
2018-06-27T06:31:00.261Z,18.52
2018-06-27T06:32:00.285Z,18.62
2018-06-27T06:33:00.272Z,18.62
2018-06-27T06:34:00.262Z,18.70
2018-06-27T06:35:00.286Z,18.77
2018-06-27T06:36:00.266Z,18.86
2018-06-27T06:37:00.268Z,18.78
2018-06-27T06:38:00.269Z,18.93
2018-06-27T06:39:00.271Z,18.96
2018-06-27T06:40:00.276Z,18.92
2018-06-27T06:41:00.275Z,19.07
2018-06-27T06:42:00.279Z,19.04
2018-06-27T06:43:00.294Z,18.96
2018-06-27T06:44:00.290Z,19.08
2018-06-27T06:45:00.284Z,19.14
2018-06-27T06:46:00.347Z,19.07
2018-06-27T06:47:00.287Z,19.02
2018-06-27T06:48:00.289Z,18.92
2018-06-27T06:49:02.219Z,18.89
2018-06-27T06:50:00.293Z,18.80
2018-06-27T06:51:00.293Z,18.73
2018-06-27T06:52:00.302Z,18.78
2018-06-27T06:53:00.315Z,18.83
2018-06-27T06:54:00.298Z,18.81
2018-06-27T06:55:00.306Z,18.80
2018-06-27T06:56:00.344Z,18.86
2018-06-27T06:57:00.304Z,18.81
2018-06-27T06:58:01.276Z,18.95
2018-06-27T06:59:00.367Z,19.09
2018-06-27T07:00:00.308Z,19.18
2018-06-27T07:01:00.311Z,19.16
2018-06-27T07:02:00.313Z,19.09
2018-06-27T07:03:00.354Z,19.16
2018-06-27T07:04:00.315Z,19.21
2018-06-27T07:05:00.340Z,19.24
2018-06-27T07:06:00.326Z,19.22
2018-06-27T07:07:00.325Z,19.19
2018-06-27T07:08:00.323Z,19.27
2018-06-27T07:09:00.328Z,19.36
2018-06-27T07:10:00.326Z,19.39
2018-06-27T07:11:00.401Z,19.41
2018-06-27T07:12:00.334Z,19.47
2018-06-27T07:13:00.338Z,19.54
2018-06-27T07:14:00.335Z,19.70
2018-06-27T07:15:00.341Z,19.86
2018-06-27T07:16:00.344Z,19.84
2018-06-27T07:17:00.345Z,19.88
2018-06-27T07:18:00.344Z,19.91
2018-06-27T07:19:00.349Z,19.85
2018-06-27T07:20:00.349Z,19.96
2018-06-27T07:21:00.350Z,19.82
2018-06-27T07:22:00.351Z,19.82
2018-06-27T07:23:00.356Z,19.86
2018-06-27T07:24:00.357Z,19.94
2018-06-27T07:25:00.360Z,19.92
2018-06-27T07:26:00.362Z,19.88
2018-06-27T07:27:00.401Z,19.94
2018-06-27T07:28:00.367Z,19.94
2018-06-27T07:29:00.369Z,20.04
2018-06-27T07:30:00.424Z,19.99
2018-06-27T07:31:00.380Z,20.09
2018-06-27T07:32:00.376Z,20.09
2018-06-27T07:33:00.393Z,20.04
2018-06-27T07:34:00.380Z,20.07
2018-06-27T07:35:00.382Z,19.94
2018-06-27T07:36:00.436Z,20.06
2018-06-27T07:37:00.388Z,19.94
2018-06-27T07:38:00.390Z,20.14
2018-06-27T07:39:00.399Z,20.04
2018-06-27T07:40:00.394Z,20.11
2018-06-27T07:41:00.398Z,20.18
2018-06-27T07:42:00.402Z,20.22
2018-06-27T07:43:00.404Z,20.11
2018-06-27T07:44:00.407Z,20.14
2018-06-27T07:45:00.409Z,20.22
2018-06-27T07:46:00.410Z,20.21
2018-06-27T07:47:00.413Z,20.29
2018-06-27T07:48:00.418Z,20.47
2018-06-27T07:49:00.418Z,20.44
2018-06-27T07:50:00.425Z,20.48
2018-06-27T07:51:00.424Z,20.43
2018-06-27T07:52:00.427Z,20.41
2018-06-27T07:53:00.428Z,20.41
2018-06-27T07:54:00.447Z,20.47
2018-06-27T07:55:00.450Z,20.39
2018-06-27T07:56:00.437Z,20.36
2018-06-27T07:57:00.444Z,20.32
2018-06-27T07:58:00.454Z,20.22
2018-06-27T07:59:00.445Z,20.18
2018-06-27T08:00:00.450Z,20.34
2018-06-27T08:01:00.464Z,20.44
2018-06-27T08:02:00.461Z,20.40
2018-06-27T08:03:00.467Z,20.47
2018-06-27T08:04:00.453Z,20.63
2018-06-27T08:05:00.463Z,20.69
2018-06-27T08:06:00.542Z,20.65
2018-06-27T08:07:00.477Z,20.56
2018-06-27T08:08:00.470Z,20.48
2018-06-27T08:09:00.471Z,20.52
2018-06-27T08:10:00.474Z,20.58
2018-06-27T08:11:00.479Z,20.59
2018-06-27T08:12:00.480Z,20.58
2018-06-27T08:13:00.492Z,20.65
2018-06-27T08:14:00.485Z,20.47
2018-06-27T08:15:00.488Z,20.44
2018-06-27T08:16:00.503Z,20.39
2018-06-27T08:17:00.495Z,20.31
2018-06-27T08:18:00.675Z,20.25
2018-06-27T08:19:00.518Z,20.18
2018-06-27T08:20:00.502Z,20.06
2018-06-27T08:21:00.557Z,20.11
2018-06-27T08:22:00.505Z,20.07
2018-06-27T08:23:00.514Z,20.06
2018-06-27T08:24:00.511Z,20.09
2018-06-27T08:25:00.516Z,20.09
2018-06-27T08:26:00.584Z,20.10
2018-06-27T08:27:00.519Z,20.04
2018-06-27T08:28:00.523Z,20.24
2018-06-27T08:29:00.524Z,20.37
2018-06-27T08:30:00.527Z,20.48
2018-06-27T08:31:00.530Z,20.43
2018-06-27T08:32:00.531Z,20.55
2018-06-27T08:33:00.533Z,21.29
2018-06-27T08:34:00.533Z,22.10
2018-06-27T08:35:00.555Z,22.87
2018-06-27T08:36:00.543Z,23.13
2018-06-27T08:37:00.549Z,23.02
2018-06-27T08:38:00.614Z,22.73
2018-06-27T08:39:00.552Z,22.54
2018-06-27T08:40:00.553Z,22.13
2018-06-27T08:41:00.825Z,22.32
2018-06-27T08:42:00.569Z,23.09
2018-06-27T08:43:00.573Z,23.62
2018-06-27T08:44:00.576Z,23.46
2018-06-27T08:45:00.577Z,23.13
2018-06-27T08:46:00.581Z,22.68
2018-06-27T08:47:00.580Z,22.53
2018-06-27T08:48:00.583Z,22.29
2018-06-27T08:49:00.605Z,22.20
2018-06-27T08:50:00.619Z,21.99
2018-06-27T08:51:00.595Z,21.79
2018-06-27T08:52:00.600Z,21.61
2018-06-27T08:53:00.604Z,21.82
2018-06-27T08:54:00.618Z,22.50
2018-06-27T08:55:00.610Z,23.51
2018-06-27T08:56:00.617Z,24.24
2018-06-27T08:57:00.617Z,24.78
2018-06-27T08:58:00.622Z,25.53
2018-06-27T08:59:00.638Z,25.33
2018-06-27T09:00:00.630Z,24.84
2018-06-27T09:01:00.635Z,24.16
2018-06-27T09:02:00.643Z,24.06
2018-06-27T09:03:00.643Z,24.29
2018-06-27T09:04:00.651Z,24.45
2018-06-27T09:05:00.663Z,24.78
2018-06-27T09:06:00.657Z,24.99
2018-06-27T09:07:00.662Z,25.75
2018-06-27T09:08:00.694Z,26.09
2018-06-27T09:09:00.674Z,25.54
2018-06-27T09:10:00.676Z,25.23
2018-06-27T09:11:00.795Z,25.60
2018-06-27T09:12:00.690Z,26.18
2018-06-27T09:13:00.699Z,26.34
2018-06-27T09:14:00.701Z,26.52
2018-06-27T09:15:00.711Z,26.55
2018-06-27T09:16:00.718Z,27.07
2018-06-27T09:17:00.716Z,27.77
2018-06-27T09:18:00.725Z,28.01
2018-06-27T09:19:00.729Z,27.93
2018-06-27T09:20:00.735Z,28.54
2018-06-27T09:21:00.849Z,28.25
2018-06-27T09:22:00.906Z,28.25
2018-06-27T09:23:00.757Z,27.87
2018-06-27T09:24:00.763Z,28.38
2018-06-27T09:25:00.768Z,28.52
2018-06-27T09:26:00.775Z,28.51
2018-06-27T09:27:00.785Z,28.47
2018-06-27T09:28:00.789Z,28.81
2018-06-27T09:29:00.804Z,29.14
2018-06-27T09:30:00.805Z,29.50
2018-06-27T09:31:00.810Z,29.88
2018-06-27T09:32:00.818Z,29.82
2018-06-27T09:33:00.830Z,29.36
2018-06-27T09:34:00.839Z,29.59
2018-06-27T09:35:00.842Z,29.05
2018-06-27T09:36:00.850Z,29.57
2018-06-27T09:37:00.859Z,29.93
2018-06-27T09:38:00.866Z,29.95
2018-06-27T09:39:01.052Z,29.07
2018-06-27T09:40:00.883Z,28.37
2018-06-27T09:41:00.896Z,27.32
2018-06-27T09:42:00.955Z,27.63
2018-06-27T09:43:00.907Z,28.15
2018-06-27T09:44:00.912Z,28.23
2018-06-27T09:45:00.919Z,28.32
2018-06-27T09:46:00.940Z,28.29
2018-06-27T09:47:00.936Z,28.64
2018-06-27T09:48:00.996Z,29.07
2018-06-27T09:49:00.986Z,29.69
2018-06-27T09:50:00.964Z,30.39
2018-06-27T09:51:00.966Z,30.77
2018-06-27T09:52:00.975Z,31.00
2018-06-27T09:53:00.982Z,31.37
2018-06-27T09:54:01.005Z,31.37
2018-06-27T09:55:01.007Z,30.92
2018-06-27T09:56:01.008Z,31.44
2018-06-27T09:57:01.036Z,31.97
2018-06-27T09:58:01.026Z,31.49
2018-06-27T09:59:01.033Z,30.96
2018-06-27T10:00:01.042Z,30.00
2018-06-27T10:01:01.056Z,29.20
2018-06-27T10:02:01.107Z,28.32
2018-06-27T10:03:01.068Z,27.35
2018-06-27T10:04:01.078Z,26.55
2018-06-27T10:05:01.085Z,25.72
2018-06-27T10:06:01.092Z,25.32
2018-06-27T10:07:01.101Z,24.80
2018-06-27T10:08:01.108Z,24.51
2018-06-27T10:09:01.139Z,25.06
2018-06-27T10:10:01.647Z,25.78
2018-06-27T10:11:01.336Z,26.59
2018-06-27T10:12:01.535Z,27.55
2018-06-27T10:13:01.144Z,28.54
2018-06-27T10:14:01.277Z,28.96
2018-06-27T10:15:01.164Z,29.14
2018-06-27T10:16:01.165Z,28.97
2018-06-27T10:17:01.242Z,29.02
2018-06-27T10:18:01.215Z,28.81
2018-06-27T10:19:01.186Z,28.48
2018-06-27T10:20:01.195Z,27.77
2018-06-27T10:21:01.202Z,27.27
2018-06-27T10:22:01.266Z,27.11
2018-06-27T10:23:01.219Z,26.77
2018-06-27T10:24:01.238Z,26.26
2018-06-27T10:25:01.232Z,25.93
2018-06-27T10:26:01.240Z,26.70
2018-06-27T10:27:01.251Z,26.51
2018-06-27T10:28:01.251Z,26.18
2018-06-27T10:29:01.262Z,26.56
2018-06-27T10:30:01.288Z,26.00
2018-06-27T10:31:01.286Z,25.83
2018-06-27T10:32:01.290Z,25.90
2018-06-27T10:33:01.287Z,25.44
2018-06-27T10:34:01.292Z,25.06
2018-06-27T10:35:01.305Z,24.66
2018-06-27T10:36:01.307Z,25.11
2018-06-27T10:37:01.311Z,25.18
2018-06-27T10:38:01.317Z,25.55
2018-06-27T10:39:01.338Z,25.87
2018-06-27T10:40:01.331Z,26.03
2018-06-27T10:41:01.370Z,26.33
2018-06-27T10:42:01.344Z,26.19
2018-06-27T10:43:02.234Z,27.03
2018-06-27T10:44:01.527Z,27.89
2018-06-27T10:45:01.361Z,27.25
2018-06-27T10:46:01.383Z,26.47
2018-06-27T10:47:01.378Z,27.11
2018-06-27T10:48:01.608Z,27.80
2018-06-27T10:49:01.388Z,28.60
2018-06-27T10:50:01.402Z,29.13
2018-06-27T10:51:01.402Z,28.82
2018-06-27T10:52:01.414Z,28.26
2018-06-27T10:53:01.499Z,27.83
2018-06-27T10:54:01.451Z,27.47
2018-06-27T10:55:01.439Z,26.81
2018-06-27T10:56:01.441Z,26.40
2018-06-27T10:57:01.447Z,26.16
2018-06-27T10:58:01.573Z,26.44
2018-06-27T10:59:01.466Z,26.44
2018-06-27T11:00:01.486Z,27.20
2018-06-27T11:01:01.527Z,27.26
2018-06-27T11:02:01.494Z,26.47
2018-06-27T11:03:01.488Z,25.93
2018-06-27T11:04:01.495Z,25.81
2018-06-27T11:05:01.530Z,25.44
2018-06-27T11:06:01.510Z,25.95
2018-06-27T11:07:01.517Z,26.58
2018-06-27T11:08:01.524Z,26.47
2018-06-27T11:09:01.531Z,26.29
2018-06-27T11:10:01.537Z,26.62
2018-06-27T11:11:01.544Z,26.78
2018-06-27T11:12:01.552Z,27.67
2018-06-27T11:13:01.573Z,28.11
2018-06-27T11:14:01.625Z,28.59
2018-06-27T11:15:01.569Z,28.81
2018-06-27T11:16:01.579Z,29.29
2018-06-27T11:17:01.585Z,29.22
2018-06-27T11:18:01.668Z,28.97
2018-06-27T11:19:01.599Z,28.62
2018-06-27T11:20:01.606Z,28.51
2018-06-27T11:21:01.641Z,28.47
2018-06-27T11:22:01.747Z,29.14
2018-06-27T11:23:01.652Z,29.16
2018-06-27T11:24:01.786Z,29.07
2018-06-27T11:25:01.823Z,29.08
2018-06-27T11:26:01.729Z,28.97
2018-06-27T11:27:01.736Z,28.60
2018-06-27T11:28:01.679Z,28.30
2018-06-27T11:29:01.676Z,27.96
2018-06-27T11:30:01.682Z,27.60
2018-06-27T11:31:01.688Z,28.04
2018-06-27T11:32:01.698Z,28.56
2018-06-27T11:33:01.705Z,29.10
2018-06-27T11:34:01.712Z,29.45
2018-06-27T11:35:01.719Z,28.98
2018-06-27T11:36:01.729Z,28.84
2018-06-27T11:37:01.737Z,28.82
2018-06-27T11:38:01.750Z,28.56
2018-06-27T11:39:01.751Z,29.12
2018-06-27T11:40:01.759Z,29.08
2018-06-27T11:41:01.789Z,29.49
2018-06-27T11:42:01.979Z,30.10
2018-06-27T11:43:01.781Z,30.78
2018-06-27T11:44:01.791Z,30.28
2018-06-27T11:45:01.799Z,29.61
2018-06-27T11:46:01.824Z,29.01
2018-06-27T11:47:01.815Z,28.44
2018-06-27T11:48:01.823Z,28.08
2018-06-27T11:49:01.830Z,27.89
2018-06-27T11:50:01.906Z,27.80
2018-06-27T11:51:01.863Z,27.63
2018-06-27T11:52:01.856Z,27.11
2018-06-27T11:53:01.862Z,26.80
2018-06-27T11:54:01.880Z,26.51
2018-06-27T11:55:01.893Z,26.29
2018-06-27T11:56:01.894Z,26.18
2018-06-27T11:57:01.891Z,25.99
2018-06-27T11:58:01.896Z,25.80
2018-06-27T11:59:01.908Z,25.43
2018-06-27T12:00:01.913Z,25.23
2018-06-27T12:01:01.917Z,25.16
2018-06-27T12:02:01.925Z,25.25
2018-06-27T12:03:02.208Z,25.23
2018-06-27T12:04:01.936Z,25.28
2018-06-27T12:05:01.941Z,25.23
2018-06-27T12:06:01.947Z,25.17
2018-06-27T12:07:01.952Z,25.08
2018-06-27T12:08:01.959Z,25.10
2018-06-27T12:09:01.968Z,25.22
2018-06-27T12:10:01.984Z,25.31
2018-06-27T12:11:01.978Z,25.22
2018-06-27T12:12:02.039Z,25.16
2018-06-27T12:13:01.987Z,25.16
2018-06-27T12:14:01.993Z,25.06
2018-06-27T12:15:02.006Z,25.28
2018-06-27T12:16:02.017Z,25.81
2018-06-27T12:17:02.195Z,26.19
2018-06-27T12:18:02.015Z,27.03
2018-06-27T12:19:02.031Z,27.51
2018-06-27T12:20:02.037Z,27.14
2018-06-27T12:21:02.042Z,27.17
2018-06-27T12:22:02.049Z,27.11
2018-06-27T12:23:02.051Z,26.96
2018-06-27T12:24:02.051Z,26.56
2018-06-27T12:25:03.503Z,26.07
2018-06-27T12:26:02.063Z,25.87
2018-06-27T12:27:02.071Z,25.83
2018-06-27T12:28:02.080Z,25.81
2018-06-27T12:29:02.081Z,25.75
2018-06-27T12:30:02.086Z,25.66
2018-06-27T12:31:02.093Z,25.51
2018-06-27T12:32:02.099Z,25.28
2018-06-27T12:33:02.109Z,24.98
2018-06-27T12:34:02.129Z,24.93
2018-06-27T12:35:02.167Z,24.74
2018-06-27T12:36:02.783Z,24.81
2018-06-27T12:37:02.131Z,24.74
2018-06-27T12:38:02.134Z,24.70
2018-06-27T12:39:02.139Z,24.63
2018-06-27T12:40:02.143Z,24.57
2018-06-27T12:41:02.165Z,24.48
2018-06-27T12:42:02.167Z,24.50
2018-06-27T12:43:02.194Z,24.43
2018-06-27T12:44:02.188Z,24.48
2018-06-27T12:45:02.175Z,24.43
2018-06-27T12:46:02.180Z,24.40
2018-06-27T12:47:02.184Z,24.45
2018-06-27T12:48:02.186Z,24.33
2018-06-27T12:49:02.192Z,24.43
2018-06-27T12:50:02.211Z,24.45
2018-06-27T12:51:02.205Z,24.65
2018-06-27T12:52:02.206Z,24.84
2018-06-27T12:53:02.213Z,24.88